Time;durP1;ratioP1;P1;durP2;ratioP2;P2;SDS_P1;SDS_P2;PMS_P1;PMS_P2;Temp;Humidity;BMP_temperature;BMP_pressure;BME280_temperature;BME280_humidity;BME280_pressure;Samples;Min_cycle;Max_cycle;Signal;HPM_P1;HPM_P2
2021/11/15 00:02:04;;;;;;;;;;;7.10;99.90;;;;;;5093366;28;19998;-74
2021/11/15 00:04:29;;;;;;;;;;;7.10;99.90;;;;;;5093583;28;20007;-74
2021/11/15 00:06:57;;;;;;;;;;;7.10;99.90;;;;;;5094146;28;20353;-74
2021/11/15 00:09:23;;;;;;;;;;;7.10;99.90;;;;;;5093557;28;19969;-74
2021/11/15 00:11:48;;;;;;;;;;;7.00;99.90;;;;;;5093369;28;19916;-74
2021/11/15 00:14:14;;;;;;;;;;;7.00;99.90;;;;;;5075411;28;19908;-74
2021/11/15 00:16:39;;;;;;;;;;;7.00;99.90;;;;;;5093411;28;19912;-74
2021/11/15 00:19:05;;;;;;;;;;;7.00;99.90;;;;;;5093160;28;19915;-74
2021/11/15 00:21:31;;;;;;;;;;;7.00;99.90;;;;;;5092682;28;19908;-74
2021/11/15 00:23:56;;;;;;;;;;;7.00;99.90;;;;;;5079157;28;19908;-74
2021/11/15 00:26:22;;;;;;;;;;;7.00;99.90;;;;;;5072903;28;19912;-74
2021/11/15 00:28:48;;;;;;;;;;;6.90;99.90;;;;;;5073162;28;19944;-74
2021/11/15 00:31:13;;;;;;;;;;;6.90;99.90;;;;;;5072538;28;19952;-74
2021/11/15 00:33:39;;;;;;;;;;;6.90;99.90;;;;;;5072643;28;19920;-74
2021/11/15 00:36:05;;;;;;;;;;;6.90;99.90;;;;;;5072880;28;19909;-74
2021/11/15 00:38:30;;;;;;;;;;;6.90;99.90;;;;;;5073040;28;19913;-74
2021/11/15 00:40:56;;;;;;;;;;;6.90;99.90;;;;;;5072383;28;20363;-74
2021/11/15 00:43:21;;;;;;;;;;;6.90;99.90;;;;;;5072658;28;19966;-74
2021/11/15 00:45:47;;;;;;;;;;;6.80;99.90;;;;;;5072848;28;19915;-74
2021/11/15 00:48:13;;;;;;;;;;;6.90;99.90;;;;;;5072545;28;19909;-74
2021/11/15 00:50:39;;;;;;;;;;;6.90;99.90;;;;;;5071952;28;19908;-74
2021/11/15 00:53:04;;;;;;;;;;;6.80;99.90;;;;;;5079040;28;19909;-74
2021/11/15 00:55:32;;;;;;;;;;;6.80;99.90;;;;;;5092692;28;19934;-74
2021/11/15 00:57:58;;;;;;;;;;;6.80;99.90;;;;;;5092592;28;19915;-74
2021/11/15 01:00:25;;;;;;;;;;;6.80;99.90;;;;;;5092166;28;20039;-74
2021/11/15 01:02:52;;;;;;;;;;;6.70;99.90;;;;;;5092368;28;19916;-74
2021/11/15 01:05:18;;;;;;;;;;;6.70;99.90;;;;;;5092527;28;19915;-74
2021/11/15 01:07:43;;;;;;;;;;;6.70;99.90;;;;;;5092577;28;20369;-74
2021/11/15 01:10:10;;;;;;;;;;;6.70;99.90;;;;;;5092111;28;20045;-74
2021/11/15 01:12:36;;;;;;;;;;;6.70;99.90;;;;;;5092398;28;20366;-74
2021/11/15 01:15:03;;;;;;;;;;;6.70;99.90;;;;;;5092368;28;19908;-74
2021/11/15 01:17:28;;;;;;;;;;;6.70;99.90;;;;;;5092080;28;19909;-74
2021/11/15 01:19:56;;;;;;;;;;;6.70;99.90;;;;;;5091776;28;20408;-74
2021/11/15 01:22:22;;;;;;;;;;;6.70;99.90;;;;;;5091165;28;19912;-74
2021/11/15 01:24:47;;;;;;;;;;;6.70;99.90;;;;;;5071662;28;19909;-74
2021/11/15 01:27:13;;;;;;;;;;;6.70;99.90;;;;;;5071903;28;19916;-74
2021/11/15 01:29:38;;;;;;;;;;;6.70;99.90;;;;;;5071456;28;19909;-74
2021/11/15 01:32:04;;;;;;;;;;;6.70;99.90;;;;;;5071556;28;19912;-74
2021/11/15 01:34:30;;;;;;;;;;;6.70;99.90;;;;;;5053684;28;20341;-74
2021/11/15 01:36:55;;;;;;;;;;;6.60;99.90;;;;;;5071635;28;20000;-74
2021/11/15 01:39:22;;;;;;;;;;;6.60;99.90;;;;;;5071532;28;19915;-74
2021/11/15 01:41:49;;;;;;;;;;;6.60;99.90;;;;;;5071111;28;20010;-74
2021/11/15 01:44:15;;;;;;;;;;;6.60;99.90;;;;;;5070701;28;19912;-74
2021/11/15 01:46:40;;;;;;;;;;;6.60;99.90;;;;;;5071394;28;19944;-74
2021/11/15 01:49:06;;;;;;;;;;;6.60;99.90;;;;;;5071512;28;20045;-74
2021/11/15 01:51:32;;;;;;;;;;;6.60;99.90;;;;;;5070859;28;19947;-74
2021/11/15 01:53:58;;;;;;;;;;;6.60;99.90;;;;;;5085282;28;19969;-74
2021/11/15 01:56:23;;;;;;;;;;;6.60;99.90;;;;;;5091868;28;20363;-74
2021/11/15 01:58:49;;;;;;;;;;;6.50;99.90;;;;;;5091520;28;19995;-74
2021/11/15 02:01:15;;;;;;;;;;;6.50;99.90;;;;;;5090996;28;19908;-74
2021/11/15 02:03:40;;;;;;;;;;;6.50;99.90;;;;;;5091254;28;19916;-74
2021/11/15 02:06:06;;;;;;;;;;;6.50;99.90;;;;;;5091515;28;19908;-74
2021/11/15 02:08:32;;;;;;;;;;;6.50;99.90;;;;;;5091431;28;19908;-74
2021/11/15 02:10:57;;;;;;;;;;;6.40;99.90;;;;;;5090905;28;19962;-74
2021/11/15 02:13:24;;;;;;;;;;;6.50;99.90;;;;;;5091506;28;20436;-74
2021/11/15 02:15:51;;;;;;;;;;;6.50;99.90;;;;;;5072990;28;19943;-74
2021/11/15 02:18:17;;;;;;;;;;;6.40;99.90;;;;;;5091208;28;19912;-74
2021/11/15 02:20:45;;;;;;;;;;;6.40;99.90;;;;;;5090771;28;20263;-74
2021/11/15 02:23:11;;;;;;;;;;;6.40;99.90;;;;;;5083563;28;19916;-74
2021/11/15 02:25:37;;;;;;;;;;;6.40;99.90;;;;;;5070852;28;19915;-74
2021/11/15 02:28:03;;;;;;;;;;;6.40;99.90;;;;;;5071519;28;19908;-74
2021/11/15 02:30:28;;;;;;;;;;;6.40;99.90;;;;;;5070453;28;19909;-74
2021/11/15 02:32:54;;;;;;;;;;;6.40;99.90;;;;;;5070918;28;19908;-74
2021/11/15 02:35:20;;;;;;;;;;;6.40;99.90;;;;;;5071002;28;19916;-74
2021/11/15 02:37:47;;;;;;;;;;;6.30;99.90;;;;;;5070947;28;19923;-74
2021/11/15 02:40:13;;;;;;;;;;;6.30;99.90;;;;;;5070489;28;19912;-74
2021/11/15 02:42:39;;;;;;;;;;;6.30;99.90;;;;;;5070551;28;19912;-74
2021/11/15 02:45:07;;;;;;;;;;;6.30;99.90;;;;;;5070738;28;20686;-74
2021/11/15 02:47:32;;;;;;;;;;;6.30;99.90;;;;;;5070788;28;20181;-74
2021/11/15 02:49:58;;;;;;;;;;;6.30;99.90;;;;;;5070547;28;20405;-74
2021/11/15 02:52:23;;;;;;;;;;;6.30;99.90;;;;;;5071644;28;19909;-74
2021/11/15 02:54:49;;;;;;;;;;;6.30;99.90;;;;;;5090733;28;19947;-74
2021/11/15 02:57:16;;;;;;;;;;;6.30;99.90;;;;;;5094388;28;19908;-74
2021/11/15 02:59:42;;;;;;;;;;;6.30;99.90;;;;;;5094417;28;19916;-74
2021/11/15 03:02:07;;;;;;;;;;;6.30;99.90;;;;;;5094843;28;19919;-74
2021/11/15 03:04:33;;;;;;;;;;;6.20;99.90;;;;;;5094870;28;20289;-74
2021/11/15 03:06:58;;;;;;;;;;;6.20;99.90;;;;;;5094937;28;20439;-74
2021/11/15 03:09:24;;;;;;;;;;;6.20;99.90;;;;;;5094862;28;20041;-74
2021/11/15 03:11:50;;;;;;;;;;;6.20;99.90;;;;;;5094385;28;19937;-74
2021/11/15 03:14:15;;;;;;;;;;;6.20;99.90;;;;;;5094549;28;19957;-74
2021/11/15 03:16:41;;;;;;;;;;;6.20;99.90;;;;;;5094646;28;19912;-74
2021/11/15 03:19:06;;;;;;;;;;;6.20;99.90;;;;;;5094665;28;19913;-74
2021/11/15 03:21:32;;;;;;;;;;;6.20;99.90;;;;;;5094017;28;19962;-74
2021/11/15 03:23:57;;;;;;;;;;;6.20;99.90;;;;;;5080520;28;19908;-74
2021/11/15 03:26:24;;;;;;;;;;;6.20;99.90;;;;;;5074113;28;19909;-74
2021/11/15 03:28:50;;;;;;;;;;;6.10;99.90;;;;;;5074092;28;20274;-74
2021/11/15 03:31:21;;;;;;;;;;;6.10;99.90;;;;;;5073598;28;20418;-74
2021/11/15 03:33:48;;;;;;;;;;;6.10;99.90;;;;;;5074062;28;20007;-74
2021/11/15 03:36:14;;;;;;;;;;;6.10;99.90;;;;;;5074113;28;19908;-74
2021/11/15 03:38:40;;;;;;;;;;;6.10;99.90;;;;;;5056023;28;19909;-73
2021/11/15 03:41:06;;;;;;;;;;;6.10;99.90;;;;;;5073409;28;19915;-73
2021/11/15 03:43:31;;;;;;;;;;;6.10;99.90;;;;;;5073845;28;19912;-74
2021/11/15 03:45:57;;;;;;;;;;;6.10;99.90;;;;;;5073802;28;19908;-74
2021/11/15 03:48:23;;;;;;;;;;;6.10;99.90;;;;;;5056209;28;19916;-74
2021/11/15 03:50:54;;;;;;;;;;;6.00;99.90;;;;;;5074363;28;19949;-73
2021/11/15 03:53:20;;;;;;;;;;;6.00;99.90;;;;;;5083510;28;19915;-73
2021/11/15 03:55:46;;;;;;;;;;;6.00;99.90;;;;;;5093675;28;19908;-73
2021/11/15 03:58:11;;;;;;;;;;;6.00;99.90;;;;;;5093974;28;20389;-74
2021/11/15 04:00:39;;;;;;;;;;;6.00;99.90;;;;;;5075815;28;19908;-74
2021/11/15 04:03:09;;;;;;;;;;;6.00;99.90;;;;;;5095142;28;19913;-73
2021/11/15 04:05:37;;;;;;;;;;;6.00;99.90;;;;;;5094843;28;19951;-74
2021/11/15 04:08:04;;;;;;;;;;;6.00;99.90;;;;;;5092936;28;20378;-74
2021/11/15 04:10:32;;;;;;;;;;;5.90;99.90;;;;;;5093138;28;19916;-73
2021/11/15 04:12:59;;;;;;;;;;;5.90;99.90;;;;;;5075729;28;19943;-74
2021/11/15 04:15:25;;;;;;;;;;;5.90;99.90;;;;;;5093662;28;19908;-73
2021/11/15 04:17:52;;;;;;;;;;;5.90;99.90;;;;;;5093642;28;19918;-74
2021/11/15 04:20:20;;;;;;;;;;;5.90;99.90;;;;;;5093228;28;19934;-74
2021/11/15 04:22:45;;;;;;;;;;;5.90;99.90;;;;;;5089231;28;19919;-74
2021/11/15 04:25:11;;;;;;;;;;;5.80;99.90;;;;;;5073182;28;19908;-74
2021/11/15 04:27:37;;;;;;;;;;;5.90;99.90;;;;;;5073322;28;19931;-74
2021/11/15 04:30:04;;;;;;;;;;;5.80;99.90;;;;;;5072741;28;19920;-74
2021/11/15 04:32:29;;;;;;;;;;;5.80;99.90;;;;;;5073254;28;20325;-73
2021/11/15 04:34:55;;;;;;;;;;;5.80;99.90;;;;;;5073144;28;20050;-74
2021/11/15 04:37:21;;;;;;;;;;;5.80;99.90;;;;;;5073120;28;19947;-74
2021/11/15 04:39:46;;;;;;;;;;;5.80;99.90;;;;;;5072594;28;20473;-74
2021/11/15 04:42:12;;;;;;;;;;;5.80;99.90;;;;;;5072827;28;20389;-74
2021/11/15 04:44:37;;;;;;;;;;;5.80;99.90;;;;;;5072875;28;19954;-73
2021/11/15 04:47:03;;;;;;;;;;;5.80;99.90;;;;;;5072898;28;20417;-73
2021/11/15 04:49:28;;;;;;;;;;;5.80;99.90;;;;;;5072840;28;20329;-74
2021/11/15 04:51:55;;;;;;;;;;;5.70;99.90;;;;;;5072319;28;19940;-73
2021/11/15 04:54:20;;;;;;;;;;;5.80;99.90;;;;;;5089720;28;20480;-73
2021/11/15 04:56:46;;;;;;;;;;;5.70;99.90;;;;;;5092904;28;19909;-74
2021/11/15 04:59:12;;;;;;;;;;;5.70;99.90;;;;;;5092806;28;19959;-74
2021/11/15 05:01:37;;;;;;;;;;;5.70;99.90;;;;;;5074446;28;19916;-74
2021/11/15 05:04:03;;;;;;;;;;;5.70;99.90;;;;;;5092719;28;19909;-73
2021/11/15 05:06:29;;;;;;;;;;;5.70;99.90;;;;;;5092804;28;19908;-73
2021/11/15 05:08:55;;;;;;;;;;;5.70;99.90;;;;;;5092899;28;20003;-74
2021/11/15 05:11:20;;;;;;;;;;;5.70;99.90;;;;;;5074387;28;19970;-73
2021/11/15 05:13:46;;;;;;;;;;;5.60;99.90;;;;;;5092673;28;19953;-74
2021/11/15 05:16:11;;;;;;;;;;;5.70;99.90;;;;;;5092903;28;19976;-74
2021/11/15 05:18:37;;;;;;;;;;;5.70;99.90;;;;;;5092860;28;19912;-74
2021/11/15 05:21:02;;;;;;;;;;;5.60;99.90;;;;;;5092080;28;19908;-74
2021/11/15 05:23:28;;;;;;;;;;;5.60;99.90;;;;;;5064235;28;19916;-74
2021/11/15 05:25:54;;;;;;;;;;;5.60;99.90;;;;;;5054617;28;19939;-73
2021/11/15 05:28:20;;;;;;;;;;;5.60;99.90;;;;;;5072293;28;19908;-74
2021/11/15 05:30:46;;;;;;;;;;;5.60;99.90;;;;;;5054252;28;19909;-74
2021/11/15 05:33:11;;;;;;;;;;;5.60;99.90;;;;;;5054343;28;20290;-74
2021/11/15 05:35:37;;;;;;;;;;;5.60;99.90;;;;;;5072136;28;19909;-73
2021/11/15 05:38:02;;;;;;;;;;;5.60;99.90;;;;;;5071962;28;20317;-74
2021/11/15 05:40:28;;;;;;;;;;;5.60;99.90;;;;;;5071683;28;19909;-74
2021/11/15 05:42:54;;;;;;;;;;;5.60;99.90;;;;;;5071701;28;19958;-73
2021/11/15 05:45:21;;;;;;;;;;;5.60;99.90;;;;;;5071876;28;19953;-73
2021/11/15 05:47:46;;;;;;;;;;;5.60;99.90;;;;;;5053812;28;19915;-74
2021/11/15 05:50:12;;;;;;;;;;;5.60;99.90;;;;;;5071228;28;19909;-73
2021/11/15 05:52:40;;;;;;;;;;;5.50;99.90;;;;;;5074544;28;19973;-73
2021/11/15 05:55:07;;;;;;;;;;;5.60;99.90;;;;;;5091680;28;19935;-73
2021/11/15 05:57:32;;;;;;;;;;;5.60;99.90;;;;;;5091860;28;20003;-74
2021/11/15 05:59:58;;;;;;;;;;;5.60;99.90;;;;;;5091239;28;19947;-74
2021/11/15 06:02:23;;;;;;;;;;;5.60;99.90;;;;;;5073496;28;19916;-73
2021/11/15 06:04:49;;;;;;;;;;;5.60;99.90;;;;;;5091743;28;19908;-74
2021/11/15 06:07:14;;;;;;;;;;;5.60;99.90;;;;;;5091683;28;20329;-73
2021/11/15 06:09:40;;;;;;;;;;;5.60;99.90;;;;;;5091251;28;19922;-73
2021/11/15 06:12:06;;;;;;;;;;;5.60;99.90;;;;;;5091493;28;20374;-73
2021/11/15 06:14:31;;;;;;;;;;;5.60;99.90;;;;;;5091587;28;20357;-74
2021/11/15 06:16:57;;;;;;;;;;;5.60;99.90;;;;;;5091951;28;19909;-74
2021/11/15 06:19:22;;;;;;;;;;;5.60;99.90;;;;;;5091496;28;19909;-74
2021/11/15 06:21:48;;;;;;;;;;;5.60;99.90;;;;;;5090834;28;20041;-74
2021/11/15 06:24:14;;;;;;;;;;;5.60;99.90;;;;;;5074887;28;19986;-74
2021/11/15 06:26:39;;;;;;;;;;;5.60;99.90;;;;;;5071350;28;20606;-74
2021/11/15 06:29:05;;;;;;;;;;;5.60;99.90;;;;;;5071757;28;19908;-74
2021/11/15 06:31:30;;;;;;;;;;;5.60;99.90;;;;;;5076738;28;19913;-74
2021/11/15 06:33:56;;;;;;;;;;;5.60;99.90;;;;;;5060270;28;19908;-74
2021/11/15 06:36:23;;;;;;;;;;;5.50;99.90;;;;;;5078104;28;20421;-74
2021/11/15 06:38:49;;;;;;;;;;;5.60;99.90;;;;;;5077985;28;19909;-74
2021/11/15 06:41:14;;;;;;;;;;;5.60;99.90;;;;;;5077568;28;19991;-74
2021/11/15 06:43:40;;;;;;;;;;;5.60;99.90;;;;;;5078039;28;20390;-74
2021/11/15 06:46:06;;;;;;;;;;;5.60;99.90;;;;;;5078053;28;19931;-74
2021/11/15 06:48:37;;;;;;;;;;;5.60;99.90;;;;;;5060038;28;19916;-72
2021/11/15 06:51:03;;;;;;;;;;;5.60;99.90;;;;;;5077418;28;20336;-72
2021/11/15 06:53:31;;;;;;;;;;;5.60;99.90;;;;;;5087760;28;19953;-73
2021/11/15 06:55:57;;;;;;;;;;;5.60;99.90;;;;;;5097845;28;19909;-73
2021/11/15 06:58:25;;;;;;;;;;;5.60;99.90;;;;;;5079764;28;19908;-73
2021/11/15 07:00:51;;;;;;;;;;;5.60;99.90;;;;;;5097667;28;19912;-73
2021/11/15 07:03:16;;;;;;;;;;;5.60;99.90;;;;;;5097878;28;19918;-73
2021/11/15 07:05:42;;;;;;;;;;;5.60;99.90;;;;;;5098083;28;19909;-74
2021/11/15 07:08:07;;;;;;;;;;;5.60;99.90;;;;;;5097919;28;19909;-74
2021/11/15 07:10:34;;;;;;;;;;;5.60;99.90;;;;;;5097976;28;19919;-74
2021/11/15 07:13:00;;;;;;;;;;;5.60;99.90;;;;;;5098420;28;19908;-73
2021/11/15 07:15:26;;;;;;;;;;;5.60;99.90;;;;;;5098133;28;19931;-74
2021/11/15 07:17:52;;;;;;;;;;;5.50;99.90;;;;;;5098023;28;19955;-74
2021/11/15 07:20:17;;;;;;;;;;;5.50;99.90;;;;;;5097383;28;19908;-73
2021/11/15 07:22:46;;;;;;;;;;;5.60;99.90;;;;;;5092519;28;19922;-74
2021/11/15 07:25:12;;;;;;;;;;;5.60;99.90;;;;;;5087523;28;19909;-74
2021/11/15 07:27:39;;;;;;;;;;;5.60;99.90;;;;;;5096893;28;19912;-73
2021/11/15 07:30:05;;;;;;;;;;;5.70;99.90;;;;;;5096230;28;19953;-74
2021/11/15 07:32:31;;;;;;;;;;;5.70;99.90;;;;;;5096943;28;19912;-74
2021/11/15 07:34:56;;;;;;;;;;;5.70;99.90;;;;;;5073021;28;19985;-74
2021/11/15 07:37:22;;;;;;;;;;;5.70;99.90;;;;;;5076944;28;19916;-73
2021/11/15 07:39:47;;;;;;;;;;;5.70;99.90;;;;;;5076714;28;19908;-74
2021/11/15 07:42:15;;;;;;;;;;;5.70;99.90;;;;;;5085651;28;19942;-73
2021/11/15 07:44:40;;;;;;;;;;;5.70;99.90;;;;;;5093820;28;19908;-73
2021/11/15 07:47:07;;;;;;;;;;;5.70;99.90;;;;;;5091140;28;19908;-73
2021/11/15 07:49:32;;;;;;;;;;;5.70;99.90;;;;;;5088116;28;19908;-73
2021/11/15 07:51:58;;;;;;;;;;;5.70;99.90;;;;;;5085384;28;19908;-73
2021/11/15 07:54:23;;;;;;;;;;;5.70;99.90;;;;;;5054865;28;19908;-74
2021/11/15 07:56:49;;;;;;;;;;;5.70;99.90;;;;;;5047965;28;20057;-73
2021/11/15 07:59:15;;;;;;;;;;;5.70;99.90;;;;;;5067331;28;20294;-73
2021/11/15 08:01:40;;;;;;;;;;;5.80;99.90;;;;;;5068527;28;19912;-75
2021/11/15 08:04:06;;;;;;;;;;;5.80;99.90;;;;;;5071177;28;19909;-75
2021/11/15 08:06:31;;;;;;;;;;;5.70;99.90;;;;;;5073571;28;19959;-75
2021/11/15 08:08:57;;;;;;;;;;;5.70;99.90;;;;;;5073485;28;20350;-75
2021/11/15 08:11:24;;;;;;;;;;;5.70;99.90;;;;;;5079554;28;20002;-76
2021/11/15 08:13:50;;;;;;;;;;;5.60;99.90;;;;;;5093370;28;20011;-74
2021/11/15 08:16:15;;;;;;;;;;;5.70;99.90;;;;;;5093183;28;19908;-75
2021/11/15 08:18:41;;;;;;;;;;;5.70;99.90;;;;;;5093487;28;19908;-75
2021/11/15 08:21:12;;;;;;;;;;;5.70;99.90;;;;;;5093069;28;19908;-74
2021/11/15 08:23:38;;;;;;;;;;;5.70;99.90;;;;;;5081846;28;19912;-74
2021/11/15 08:26:26;;;;;;;;;;;5.70;99.90;;;;;;5073139;28;20350;-75
2021/11/15 08:28:52;;;;;;;;;;;5.80;99.90;;;;;;5073099;28;19913;-78
2021/11/15 08:31:18;;;;;;;;;;;5.80;99.90;;;;;;5072741;28;19909;-74
2021/11/15 08:33:43;;;;;;;;;;;5.90;99.90;;;;;;5073069;28;19908;-76
2021/11/15 08:36:09;;;;;;;;;;;5.90;99.90;;;;;;5072907;28;19909;-75
2021/11/15 08:38:41;;;;;;;;;;;5.90;99.90;;;;;;5072932;28;19913;-75
2021/11/15 08:41:06;;;;;;;;;;;5.90;99.90;;;;;;5072319;28;19908;-75
2021/11/15 08:43:33;;;;;;;;;;;5.90;99.90;;;;;;5072824;28;20469;-76
2021/11/15 08:45:58;;;;;;;;;;;5.90;99.90;;;;;;5072942;28;19908;-76
2021/11/15 08:48:24;;;;;;;;;;;5.90;99.90;;;;;;5072710;28;19951;-76
2021/11/15 08:50:50;;;;;;;;;;;5.90;99.90;;;;;;5072266;28;20003;-76
2021/11/15 08:53:15;;;;;;;;;;;5.90;99.90;;;;;;5072653;28;19935;-76
2021/11/15 08:55:41;;;;;;;;;;;5.90;99.90;;;;;;5092216;28;19908;-76
2021/11/15 08:58:06;;;;;;;;;;;5.90;99.90;;;;;;5093225;28;19908;-76
2021/11/15 09:00:32;;;;;;;;;;;5.80;99.90;;;;;;5090582;28;19960;-74
2021/11/15 09:02:57;;;;;;;;;;;5.80;99.90;;;;;;5074387;28;19919;-75
2021/11/15 09:05:23;;;;;;;;;;;5.80;99.90;;;;;;5092580;28;19908;-74
2021/11/15 09:07:50;;;;;;;;;;;5.70;99.90;;;;;;5092622;28;19995;-74
2021/11/15 09:10:15;;;;;;;;;;;5.70;99.90;;;;;;5092054;28;20002;-74
2021/11/15 09:12:42;;;;;;;;;;;5.80;99.90;;;;;;5092685;28;20062;-74
2021/11/15 09:15:09;;;;;;;;;;;5.70;99.90;;;;;;5092564;28;19909;-75
2021/11/15 09:17:35;;;;;;;;;;;5.70;99.90;;;;;;5092331;28;20410;-74
2021/11/15 09:20:02;;;;;;;;;;;5.70;99.90;;;;;;5091959;28;20412;-75
2021/11/15 09:22:28;;;;;;;;;;;5.70;99.90;;;;;;5090446;28;20359;-75
2021/11/15 09:24:54;;;;;;;;;;;5.80;99.90;;;;;;5071611;28;19913;-75
2021/11/15 09:27:19;;;;;;;;;;;5.80;99.90;;;;;;5071918;28;19908;-75
2021/11/15 09:29:46;;;;;;;;;;;5.90;99.90;;;;;;5071593;28;19998;-75
2021/11/15 09:32:12;;;;;;;;;;;5.90;99.90;;;;;;5071873;28;19962;-75
2021/11/15 09:34:40;;;;;;;;;;;5.80;99.90;;;;;;5071814;28;19912;-75
2021/11/15 09:37:10;;;;;;;;;;;5.90;99.90;;;;;;5072145;28;19908;-74
2021/11/15 09:39:36;;;;;;;;;;;5.80;99.90;;;;;;5071334;28;20393;-75
2021/11/15 09:42:02;;;;;;;;;;;5.80;99.90;;;;;;5071656;28;19970;-75
2021/11/15 09:44:28;;;;;;;;;;;5.80;99.90;;;;;;5071864;28;20278;-74
2021/11/15 09:46:53;;;;;;;;;;;5.80;99.90;;;;;;5071583;28;19909;-75
2021/11/15 09:49:19;;;;;;;;;;;5.80;99.90;;;;;;5071567;28;20349;-75
2021/11/15 09:51:47;;;;;;;;;;;5.90;99.90;;;;;;5071111;28;19915;-76
2021/11/15 09:54:13;;;;;;;;;;;5.90;99.90;;;;;;5069506;28;20325;-76
2021/11/15 09:56:39;;;;;;;;;;;5.90;99.90;;;;;;5082664;28;20003;-75
2021/11/15 09:59:06;;;;;;;;;;;5.80;99.90;;;;;;5091694;28;19915;-75
2021/11/15 10:01:32;;;;;;;;;;;5.90;99.90;;;;;;5091175;28;19913;-75
2021/11/15 10:03:58;;;;;;;;;;;5.80;99.90;;;;;;5091548;28;19921;-75
2021/11/15 10:06:23;;;;;;;;;;;5.80;99.90;;;;;;5090749;28;19993;-75
2021/11/15 10:08:54;;;;;;;;;;;5.90;99.90;;;;;;5091168;28;20000;-75
2021/11/15 10:11:20;;;;;;;;;;;5.90;99.90;;;;;;5090871;28;19927;-75
2021/11/15 10:13:46;;;;;;;;;;;6.00;99.90;;;;;;5073188;28;20309;-74
2021/11/15 10:16:18;;;;;;;;;;;6.00;99.90;;;;;;5091436;28;19953;-75
2021/11/15 10:18:57;;;;;;;;;;;6.10;99.90;;;;;;5091535;28;19915;-75
2021/11/15 10:21:34;;;;;;;;;;;6.10;99.90;;;;;;5090779;28;19912;-75
2021/11/15 10:24:08;;;;;;;;;;;6.20;99.90;;;;;;5076985;28;19996;-75
2021/11/15 10:26:37;;;;;;;;;;;6.00;99.90;;;;;;5071322;28;20436;-76
2021/11/15 10:29:03;;;;;;;;;;;6.00;99.90;;;;;;5053309;28;20279;-76
2021/11/15 10:31:35;;;;;;;;;;;6.10;99.90;;;;;;5070939;28;19909;-75
2021/11/15 10:34:03;;;;;;;;;;;6.20;99.90;;;;;;5071147;28;19908;-76
2021/11/15 10:36:47;;;;;;;;;;;6.20;99.90;;;;;;5070986;28;19954;-75
2021/11/15 10:39:13;;;;;;;;;;;6.20;99.90;;;;;;5052974;28;19908;-74
2021/11/15 10:41:38;;;;;;;;;;;6.10;99.90;;;;;;5070571;28;20008;-75
2021/11/15 10:44:12;;;;;;;;;;;6.10;99.90;;;;;;5070892;28;20359;-75
2021/11/15 10:46:39;;;;;;;;;;;6.20;99.90;;;;;;5071334;28;19908;-74
2021/11/15 10:49:05;;;;;;;;;;;6.10;99.90;;;;;;5090878;28;20362;-75
2021/11/15 10:51:43;;;;;;;;;;;6.20;99.90;;;;;;5090209;28;20011;-75
2021/11/15 10:54:28;;;;;;;;;;;6.20;99.90;;;;;;5068407;28;19912;-75
2021/11/15 10:56:56;;;;;;;;;;;6.10;99.90;;;;;;5077356;28;20395;-74
2021/11/15 10:59:22;;;;;;;;;;;6.10;99.90;;;;;;5070754;28;20374;-74
2021/11/15 11:01:48;;;;;;;;;;;6.10;99.90;;;;;;5052600;28;19912;-74
2021/11/15 11:04:16;;;;;;;;;;;6.00;99.90;;;;;;5070481;28;19915;-75
2021/11/15 11:06:55;;;;;;;;;;;5.90;99.90;;;;;;5052583;28;20398;-74
2021/11/15 11:09:37;;;;;;;;;;;5.90;99.90;;;;;;5082518;28;19957;-74
2021/11/15 11:12:14;;;;;;;;;;;5.90;99.90;;;;;;5090470;28;19922;-74
2021/11/15 11:14:41;;;;;;;;;;;5.90;99.90;;;;;;5090927;28;19939;-74
2021/11/15 11:17:07;;;;;;;;;;;5.90;99.90;;;;;;5092319;28;20007;-75
2021/11/15 11:19:58;;;;;;;;;;;6.00;99.90;;;;;;5094471;28;20410;-74
2021/11/15 11:22:38;;;;;;;;;;;6.00;99.90;;;;;;5093414;28;19913;-74
2021/11/15 11:27:29;;;;;;;;;;;6.00;99.90;;;;;;5075341;28;20379;-74
2021/11/15 11:29:55;;;;;;;;;;;6.00;99.90;;;;;;5093632;28;19915;-75
2021/11/15 11:32:23;;;;;;;;;;;6.10;99.90;;;;;;5094421;28;19954;-74
2021/11/15 11:34:49;;;;;;;;;;;6.10;99.90;;;;;;5094335;28;19908;-75
2021/11/15 11:37:16;;;;;;;;;;;6.10;99.90;;;;;;5094268;28;20002;-74
2021/11/15 11:39:42;;;;;;;;;;;6.00;99.90;;;;;;5075886;28;20327;-75
2021/11/15 11:42:08;;;;;;;;;;;6.00;99.90;;;;;;5094156;28;19912;-75
2021/11/15 11:44:35;;;;;;;;;;;6.00;99.90;;;;;;5094044;28;20421;-75
2021/11/15 11:47:03;;;;;;;;;;;5.90;99.90;;;;;;5094678;28;19912;-75
2021/11/15 11:49:29;;;;;;;;;;;5.90;99.90;;;;;;5094035;28;19908;-76
2021/11/15 11:51:57;;;;;;;;;;;5.90;99.90;;;;;;5093719;28;19912;-75
2021/11/15 11:54:24;;;;;;;;;;;5.90;99.90;;;;;;5066132;28;19951;-75
2021/11/15 11:57:02;;;;;;;;;;;5.90;99.90;;;;;;5094009;28;19908;-75
2021/11/15 11:59:27;;;;;;;;;;;6.00;99.90;;;;;;5094009;28;19908;-75
2021/11/15 12:01:57;;;;;;;;;;;5.90;99.90;;;;;;5093536;28;19912;-75
2021/11/15 12:04:25;;;;;;;;;;;6.00;99.90;;;;;;5093975;28;19947;-75
2021/11/15 12:06:50;;;;;;;;;;;6.10;99.90;;;;;;5093917;28;20513;-75
2021/11/15 12:09:22;;;;;;;;;;;6.00;99.90;;;;;;5093948;28;20110;-75
2021/11/15 12:11:54;;;;;;;;;;;6.00;99.90;;;;;;5093104;28;19920;-75
2021/11/15 12:14:34;;;;;;;;;;;6.10;99.90;;;;;;5094057;28;19912;-76
2021/11/15 12:17:09;;;;;;;;;;;6.10;99.90;;;;;;5094670;28;19962;-76
2021/11/15 12:19:55;;;;;;;;;;;6.00;99.90;;;;;;5093556;28;19908;-76
2021/11/15 12:22:22;;;;;;;;;;;6.00;99.90;;;;;;5092874;28;20207;-76
2021/11/15 12:25:07;;;;;;;;;;;6.10;99.90;;;;;;5055562;28;19940;-75
2021/11/15 12:27:35;;;;;;;;;;;6.30;99.90;;;;;;5073074;28;19912;-76
2021/11/15 12:30:10;;;;;;;;;;;6.20;99.90;;;;;;5071691;28;19912;-76
2021/11/15 12:32:35;;;;;;;;;;;6.20;99.90;;;;;;5072590;28;20296;-76
2021/11/15 12:35:01;;;;;;;;;;;6.30;99.90;;;;;;5072818;28;19916;-75
2021/11/15 12:37:40;;;;;;;;;;;6.30;99.90;;;;;;5073170;28;19913;-76
2021/11/15 12:40:07;;;;;;;;;;;6.20;99.90;;;;;;5072243;28;19912;-76
2021/11/15 12:42:33;;;;;;;;;;;6.30;99.90;;;;;;5072654;28;19959;-76
2021/11/15 12:45:07;;;;;;;;;;;6.30;99.90;;;;;;5072470;28;19916;-76
2021/11/15 12:47:37;;;;;;;;;;;6.30;99.90;;;;;;5072648;28;19954;-76
2021/11/15 12:50:05;;;;;;;;;;;6.30;99.90;;;;;;5054102;28;19909;-75
2021/11/15 12:52:33;;;;;;;;;;;6.20;99.90;;;;;;5073521;28;19919;-75
2021/11/15 12:55:00;;;;;;;;;;;6.20;99.90;;;;;;5078188;28;20375;-75
2021/11/15 12:57:26;;;;;;;;;;;6.30;99.90;;;;;;5072021;28;20084;-75
2021/11/15 13:00:03;;;;;;;;;;;6.30;99.90;;;;;;5072059;28;19954;-75
2021/11/15 13:02:30;;;;;;;;;;;6.20;99.90;;;;;;5090465;28;19912;-75
2021/11/15 13:04:55;;;;;;;;;;;6.30;99.90;;;;;;5074236;28;19991;-75
2021/11/15 13:07:21;;;;;;;;;;;6.20;99.90;;;;;;5092436;28;19948;-75
2021/11/15 13:09:47;;;;;;;;;;;6.30;99.90;;;;;;5091903;28;19912;-75
2021/11/15 13:12:13;;;;;;;;;;;6.30;99.90;;;;;;5092346;28;19999;-76
2021/11/15 13:14:38;;;;;;;;;;;6.30;99.90;;;;;;5092453;28;19908;-76
2021/11/15 13:17:05;;;;;;;;;;;6.30;99.90;;;;;;5092270;28;19912;-75
2021/11/15 13:19:30;;;;;;;;;;;6.20;99.90;;;;;;5092105;28;19915;-75
2021/11/15 13:21:56;;;;;;;;;;;6.20;99.90;;;;;;5091665;28;19909;-74
2021/11/15 13:24:21;;;;;;;;;;;6.20;99.90;;;;;;5074303;28;19931;-74
2021/11/15 13:26:48;;;;;;;;;;;6.20;99.90;;;;;;5071574;28;19991;-75
2021/11/15 13:29:16;;;;;;;;;;;6.10;99.90;;;;;;5071902;28;19909;-75
2021/11/15 13:31:42;;;;;;;;;;;6.20;99.90;;;;;;5071332;28;19916;-75
2021/11/15 13:34:08;;;;;;;;;;;6.20;99.90;;;;;;5071688;28;20003;-75
2021/11/15 13:36:34;;;;;;;;;;;6.30;99.90;;;;;;5072149;28;20004;-75
2021/11/15 13:39:00;;;;;;;;;;;6.20;99.90;;;;;;5071530;28;20414;-75
2021/11/15 13:41:26;;;;;;;;;;;6.30;99.90;;;;;;5070537;28;19912;-75
2021/11/15 13:43:52;;;;;;;;;;;6.20;99.90;;;;;;5071446;28;19917;-75
2021/11/15 13:46:21;;;;;;;;;;;6.20;99.90;;;;;;5071134;28;19914;-75
2021/11/15 13:48:47;;;;;;;;;;;6.10;99.90;;;;;;5071326;28;19959;-74
2021/11/15 13:51:12;;;;;;;;;;;6.10;99.90;;;;;;5070979;28;19909;-75
2021/11/15 13:53:38;;;;;;;;;;;6.00;99.90;;;;;;5079809;28;20528;-75
2021/11/15 13:56:04;;;;;;;;;;;6.00;99.90;;;;;;5091331;28;19916;-75
2021/11/15 13:58:32;;;;;;;;;;;6.00;99.90;;;;;;5091540;28;19951;-75
2021/11/15 14:00:58;;;;;;;;;;;6.10;99.90;;;;;;5091099;28;19955;-75
2021/11/15 14:03:24;;;;;;;;;;;6.10;99.90;;;;;;5091309;28;19955;-75
2021/11/15 14:05:49;;;;;;;;;;;6.10;99.90;;;;;;5093232;28;20221;-75
2021/11/15 14:08:16;;;;;;;;;;;6.00;99.90;;;;;;5111978;28;19908;-74
2021/11/15 14:10:41;;;;;;;;;;;6.00;99.90;;;;;;5112360;28;19955;-74
2021/11/15 14:13:07;;;;;;;;;;;5.90;99.90;;;;;;5112569;28;19908;-75
2021/11/15 14:15:32;;;;;;;;;;;5.90;99.90;;;;;;5112606;28;19899;-74
2021/11/15 14:17:58;;;;;;;;;;;5.90;99.90;;;;;;5111783;28;19908;-75
2021/11/15 14:20:27;;;;;;;;;;;5.80;99.90;;;;;;5074603;28;20027;-75
2021/11/15 14:22:53;;;;;;;;;;;5.90;99.90;;;;;;5085863;28;19912;-75
2021/11/15 14:25:18;;;;;;;;;;;5.90;99.90;;;;;;5070859;28;19915;-75
2021/11/15 14:27:44;;;;;;;;;;;5.90;99.90;;;;;;5071040;28;19908;-75
2021/11/15 14:30:10;;;;;;;;;;;5.90;99.90;;;;;;5070624;28;19909;-75
2021/11/15 14:32:36;;;;;;;;;;;5.90;99.90;;;;;;5070938;28;19908;-75